sensor_id;sensor_type;location;lat;lon;timestamp;P1;durP1;ratioP1;P2;durP2;ratioP2
54408;SDS011;40315;48.620;9.828;2023-03-04T00:02:14;40.97;;;20.90;;
54408;SDS011;40315;48.620;9.828;2023-03-04T00:04:41;36.80;;;21.23;;
54408;SDS011;40315;48.620;9.828;2023-03-04T00:07:08;39.43;;;20.80;;
54408;SDS011;40315;48.620;9.828;2023-03-04T00:09:35;39.87;;;21.37;;
54408;SDS011;40315;48.620;9.828;2023-03-04T00:12:03;36.13;;;19.93;;
54408;SDS011;40315;48.620;9.828;2023-03-04T00:14:32;39.00;;;20.87;;
54408;SDS011;40315;48.620;9.828;2023-03-04T00:17:00;36.53;;;20.43;;
54408;SDS011;40315;48.620;9.828;2023-03-04T00:19:28;41.50;;;20.87;;
54408;SDS011;40315;48.620;9.828;2023-03-04T00:21:55;37.57;;;19.77;;
54408;SDS011;40315;48.620;9.828;2023-03-04T00:26:54;35.80;;;19.60;;
54408;SDS011;40315;48.620;9.828;2023-03-04T00:29:23;41.83;;;21.03;;
54408;SDS011;40315;48.620;9.828;2023-03-04T00:31:50;40.57;;;21.90;;
54408;SDS011;40315;48.620;9.828;2023-03-04T00:34:20;42.83;;;20.57;;
54408;SDS011;40315;48.620;9.828;2023-03-04T00:36:47;38.73;;;20.47;;
54408;SDS011;40315;48.620;9.828;2023-03-04T00:39:16;42.17;;;21.40;;
54408;SDS011;40315;48.620;9.828;2023-03-04T00:41:43;46.03;;;21.40;;
54408;SDS011;40315;48.620;9.828;2023-03-04T00:44:10;39.03;;;20.60;;
54408;SDS011;40315;48.620;9.828;2023-03-04T00:46:39;41.87;;;21.73;;
54408;SDS011;40315;48.620;9.828;2023-03-04T00:49:06;39.70;;;20.90;;
54408;SDS011;40315;48.620;9.828;2023-03-04T00:51:33;43.57;;;21.27;;
54408;SDS011;40315;48.620;9.828;2023-03-04T00:54:00;43.43;;;21.10;;
54408;SDS011;40315;48.620;9.828;2023-03-04T00:56:27;41.03;;;19.93;;
54408;SDS011;40315;48.620;9.828;2023-03-04T00:58:54;42.93;;;21.47;;
54408;SDS011;40315;48.620;9.828;2023-03-04T01:01:21;44.57;;;22.73;;
54408;SDS011;40315;48.620;9.828;2023-03-04T01:03:51;45.80;;;22.80;;
54408;SDS011;40315;48.620;9.828;2023-03-04T01:06:18;43.37;;;22.07;;
54408;SDS011;40315;48.620;9.828;2023-03-04T01:08:45;39.80;;;21.77;;
54408;SDS011;40315;48.620;9.828;2023-03-04T01:11:12;39.03;;;20.87;;
54408;SDS011;40315;48.620;9.828;2023-03-04T01:13:40;37.43;;;19.47;;
54408;SDS011;40315;48.620;9.828;2023-03-04T01:16:08;35.47;;;19.07;;
54408;SDS011;40315;48.620;9.828;2023-03-04T01:18:37;42.17;;;21.07;;
54408;SDS011;40315;48.620;9.828;2023-03-04T01:21:05;37.37;;;19.40;;
54408;SDS011;40315;48.620;9.828;2023-03-04T01:23:32;40.27;;;20.60;;
54408;SDS011;40315;48.620;9.828;2023-03-04T01:26:00;37.70;;;19.93;;
54408;SDS011;40315;48.620;9.828;2023-03-04T01:28:27;39.23;;;19.70;;
54408;SDS011;40315;48.620;9.828;2023-03-04T01:30:54;38.23;;;19.50;;
54408;SDS011;40315;48.620;9.828;2023-03-04T01:33:22;40.83;;;20.47;;
54408;SDS011;40315;48.620;9.828;2023-03-04T01:35:49;37.83;;;20.57;;
54408;SDS011;40315;48.620;9.828;2023-03-04T01:38:17;35.63;;;19.03;;
54408;SDS011;40315;48.620;9.828;2023-03-04T01:40:44;40.27;;;20.50;;
54408;SDS011;40315;48.620;9.828;2023-03-04T01:43:15;38.20;;;20.63;;
54408;SDS011;40315;48.620;9.828;2023-03-04T01:49:11;34.00;;;19.00;;
54408;SDS011;40315;48.620;9.828;2023-03-04T01:51:41;38.37;;;20.23;;
54408;SDS011;40315;48.620;9.828;2023-03-04T01:54:11;36.07;;;19.37;;
54408;SDS011;40315;48.620;9.828;2023-03-04T01:56:40;32.80;;;18.17;;
54408;SDS011;40315;48.620;9.828;2023-03-04T01:59:11;37.10;;;18.63;;
54408;SDS011;40315;48.620;9.828;2023-03-04T02:01:40;36.30;;;19.47;;
54408;SDS011;40315;48.620;9.828;2023-03-04T02:04:09;35.67;;;18.67;;
54408;SDS011;40315;48.620;9.828;2023-03-04T02:06:37;35.27;;;18.73;;
54408;SDS011;40315;48.620;9.828;2023-03-04T02:09:08;36.60;;;18.60;;
54408;SDS011;40315;48.620;9.828;2023-03-04T02:11:37;33.70;;;18.00;;
54408;SDS011;40315;48.620;9.828;2023-03-04T02:14:05;35.20;;;18.50;;
54408;SDS011;40315;48.620;9.828;2023-03-04T02:16:32;36.17;;;19.23;;
54408;SDS011;40315;48.620;9.828;2023-03-04T02:18:59;34.70;;;17.67;;
54408;SDS011;40315;48.620;9.828;2023-03-04T02:21:28;36.60;;;19.70;;
54408;SDS011;40315;48.620;9.828;2023-03-04T02:26:37;32.80;;;17.80;;
54408;SDS011;40315;48.620;9.828;2023-03-04T02:29:05;42.03;;;19.73;;
54408;SDS011;40315;48.620;9.828;2023-03-04T02:31:38;38.97;;;19.47;;
54408;SDS011;40315;48.620;9.828;2023-03-04T02:34:10;36.23;;;19.07;;
54408;SDS011;40315;48.620;9.828;2023-03-04T02:36:39;39.87;;;20.83;;
54408;SDS011;40315;48.620;9.828;2023-03-04T02:39:10;34.97;;;19.43;;
54408;SDS011;40315;48.620;9.828;2023-03-04T02:41:44;36.40;;;19.70;;
54408;SDS011;40315;48.620;9.828;2023-03-04T02:44:14;34.30;;;18.40;;
54408;SDS011;40315;48.620;9.828;2023-03-04T02:46:45;40.90;;;20.00;;
54408;SDS011;40315;48.620;9.828;2023-03-04T02:49:12;38.30;;;19.77;;
54408;SDS011;40315;48.620;9.828;2023-03-04T02:51:40;33.03;;;18.23;;
54408;SDS011;40315;48.620;9.828;2023-03-04T02:54:19;38.57;;;19.70;;
54408;SDS011;40315;48.620;9.828;2023-03-04T02:56:49;33.70;;;17.90;;
54408;SDS011;40315;48.620;9.828;2023-03-04T02:59:19;36.23;;;18.80;;
54408;SDS011;40315;48.620;9.828;2023-03-04T03:01:48;37.70;;;19.87;;
54408;SDS011;40315;48.620;9.828;2023-03-04T03:04:15;38.43;;;19.63;;
54408;SDS011;40315;48.620;9.828;2023-03-04T03:06:43;36.80;;;19.87;;
54408;SDS011;40315;48.620;9.828;2023-03-04T03:09:10;37.30;;;18.60;;
54408;SDS011;40315;48.620;9.828;2023-03-04T03:11:38;35.63;;;18.50;;
54408;SDS011;40315;48.620;9.828;2023-03-04T03:14:07;35.93;;;18.40;;
54408;SDS011;40315;48.620;9.828;2023-03-04T03:16:34;36.87;;;19.93;;
54408;SDS011;40315;48.620;9.828;2023-03-04T03:19:01;38.33;;;19.97;;
54408;SDS011;40315;48.620;9.828;2023-03-04T03:21:29;38.03;;;20.33;;
54408;SDS011;40315;48.620;9.828;2023-03-04T03:23:56;40.70;;;20.23;;
54408;SDS011;40315;48.620;9.828;2023-03-04T03:26:23;36.33;;;19.37;;
54408;SDS011;40315;48.620;9.828;2023-03-04T03:28:50;35.17;;;19.30;;
54408;SDS011;40315;48.620;9.828;2023-03-04T03:31:18;35.57;;;19.97;;
54408;SDS011;40315;48.620;9.828;2023-03-04T03:33:45;38.13;;;19.17;;
54408;SDS011;40315;48.620;9.828;2023-03-04T03:36:12;38.73;;;19.47;;
54408;SDS011;40315;48.620;9.828;2023-03-04T03:38:39;37.97;;;19.17;;
54408;SDS011;40315;48.620;9.828;2023-03-04T03:41:07;35.50;;;18.43;;
54408;SDS011;40315;48.620;9.828;2023-03-04T03:43:34;40.63;;;19.70;;
54408;SDS011;40315;48.620;9.828;2023-03-04T03:46:01;40.73;;;19.30;;
54408;SDS011;40315;48.620;9.828;2023-03-04T03:48:29;37.30;;;18.53;;
54408;SDS011;40315;48.620;9.828;2023-03-04T03:50:58;33.13;;;17.60;;
54408;SDS011;40315;48.620;9.828;2023-03-04T03:53:25;35.67;;;17.63;;
54408;SDS011;40315;48.620;9.828;2023-03-04T03:55:52;36.93;;;18.83;;
54408;SDS011;40315;48.620;9.828;2023-03-04T03:58:19;38.03;;;18.03;;
54408;SDS011;40315;48.620;9.828;2023-03-04T04:00:47;33.27;;;18.23;;
54408;SDS011;40315;48.620;9.828;2023-03-04T04:03:16;34.07;;;18.90;;
54408;SDS011;40315;48.620;9.828;2023-03-04T04:05:47;35.90;;;19.03;;
54408;SDS011;40315;48.620;9.828;2023-03-04T04:08:14;41.80;;;19.93;;
54408;SDS011;40315;48.620;9.828;2023-03-04T04:10:42;36.37;;;19.87;;
54408;SDS011;40315;48.620;9.828;2023-03-04T04:13:09;36.53;;;19.50;;
54408;SDS011;40315;48.620;9.828;2023-03-04T04:15:39;38.07;;;20.03;;
54408;SDS011;40315;48.620;9.828;2023-03-04T04:18:06;40.00;;;19.57;;
54408;SDS011;40315;48.620;9.828;2023-03-04T04:20:36;37.87;;;20.80;;
54408;SDS011;40315;48.620;9.828;2023-03-04T04:23:04;38.63;;;20.07;;
54408;SDS011;40315;48.620;9.828;2023-03-04T04:25:31;38.20;;;20.53;;
54408;SDS011;40315;48.620;9.828;2023-03-04T04:27:58;37.97;;;18.87;;
54408;SDS011;40315;48.620;9.828;2023-03-04T04:30:25;37.87;;;20.17;;
54408;SDS011;40315;48.620;9.828;2023-03-04T04:35:26;37.63;;;18.90;;
54408;SDS011;40315;48.620;9.828;2023-03-04T04:37:53;37.53;;;18.87;;
54408;SDS011;40315;48.620;9.828;2023-03-04T04:40:21;36.37;;;19.47;;
54408;SDS011;40315;48.620;9.828;2023-03-04T04:42:48;39.17;;;20.37;;
54408;SDS011;40315;48.620;9.828;2023-03-04T04:45:15;38.80;;;19.40;;
54408;SDS011;40315;48.620;9.828;2023-03-04T04:47:42;37.77;;;18.50;;
54408;SDS011;40315;48.620;9.828;2023-03-04T04:50:10;36.83;;;19.83;;
54408;SDS011;40315;48.620;9.828;2023-03-04T04:52:37;35.80;;;18.60;;
54408;SDS011;40315;48.620;9.828;2023-03-04T04:55:04;36.83;;;18.80;;
54408;SDS011;40315;48.620;9.828;2023-03-04T04:57:35;35.90;;;18.77;;
54408;SDS011;40315;48.620;9.828;2023-03-04T05:00:03;39.13;;;19.47;;
54408;SDS011;40315;48.620;9.828;2023-03-04T05:02:31;37.53;;;19.13;;
54408;SDS011;40315;48.620;9.828;2023-03-04T05:05:00;36.50;;;18.60;;
54408;SDS011;40315;48.620;9.828;2023-03-04T05:07:27;38.20;;;19.47;;
54408;SDS011;40315;48.620;9.828;2023-03-04T05:09:57;40.27;;;19.93;;
54408;SDS011;40315;48.620;9.828;2023-03-04T05:12:24;39.93;;;20.40;;
54408;SDS011;40315;48.620;9.828;2023-03-04T05:14:52;37.17;;;19.13;;
54408;SDS011;40315;48.620;9.828;2023-03-04T05:17:21;40.70;;;20.67;;
54408;SDS011;40315;48.620;9.828;2023-03-04T05:19:48;39.17;;;20.23;;
54408;SDS011;40315;48.620;9.828;2023-03-04T05:22:15;39.17;;;18.33;;
54408;SDS011;40315;48.620;9.828;2023-03-04T05:24:42;36.67;;;18.93;;
54408;SDS011;40315;48.620;9.828;2023-03-04T05:27:09;38.47;;;19.77;;
54408;SDS011;40315;48.620;9.828;2023-03-04T05:29:36;36.13;;;18.80;;
54408;SDS011;40315;48.620;9.828;2023-03-04T05:32:05;35.93;;;18.93;;
54408;SDS011;40315;48.620;9.828;2023-03-04T05:34:32;37.43;;;19.13;;
54408;SDS011;40315;48.620;9.828;2023-03-04T05:36:59;41.67;;;19.80;;
54408;SDS011;40315;48.620;9.828;2023-03-04T05:39:26;40.57;;;19.57;;
54408;SDS011;40315;48.620;9.828;2023-03-04T05:41:55;41.17;;;19.73;;
54408;SDS011;40315;48.620;9.828;2023-03-04T05:44:22;44.07;;;20.50;;
54408;SDS011;40315;48.620;9.828;2023-03-04T05:46:49;40.80;;;20.47;;
54408;SDS011;40315;48.620;9.828;2023-03-04T05:49:17;39.43;;;20.77;;
54408;SDS011;40315;48.620;9.828;2023-03-04T05:51:44;37.67;;;18.57;;
54408;SDS011;40315;48.620;9.828;2023-03-04T05:54:14;42.53;;;20.27;;
54408;SDS011;40315;48.620;9.828;2023-03-04T05:56:41;37.30;;;19.20;;
54408;SDS011;40315;48.620;9.828;2023-03-04T05:59:08;38.60;;;18.23;;
54408;SDS011;40315;48.620;9.828;2023-03-04T06:01:35;40.10;;;19.30;;
54408;SDS011;40315;48.620;9.828;2023-03-04T06:04:02;41.70;;;20.60;;
54408;SDS011;40315;48.620;9.828;2023-03-04T06:06:31;46.47;;;22.97;;
54408;SDS011;40315;48.620;9.828;2023-03-04T06:09:00;48.33;;;22.23;;
54408;SDS011;40315;48.620;9.828;2023-03-04T06:11:27;47.90;;;23.30;;
54408;SDS011;40315;48.620;9.828;2023-03-04T06:13:57;50.70;;;23.33;;
54408;SDS011;40315;48.620;9.828;2023-03-04T06:16:24;49.13;;;24.50;;
54408;SDS011;40315;48.620;9.828;2023-03-04T06:18:53;50.47;;;25.13;;
54408;SDS011;40315;48.620;9.828;2023-03-04T06:21:20;49.10;;;22.80;;
54408;SDS011;40315;48.620;9.828;2023-03-04T06:23:48;58.07;;;25.60;;
54408;SDS011;40315;48.620;9.828;2023-03-04T06:26:15;56.87;;;27.00;;
54408;SDS011;40315;48.620;9.828;2023-03-04T06:28:43;50.37;;;25.93;;
54408;SDS011;40315;48.620;9.828;2023-03-04T06:31:10;55.43;;;27.10;;
54408;SDS011;40315;48.620;9.828;2023-03-04T06:33:38;56.07;;;26.90;;
54408;SDS011;40315;48.620;9.828;2023-03-04T06:36:05;60.97;;;27.37;;
54408;SDS011;40315;48.620;9.828;2023-03-04T06:38:33;57.37;;;27.93;;
54408;SDS011;40315;48.620;9.828;2023-03-04T06:41:06;60.03;;;27.77;;
54408;SDS011;40315;48.620;9.828;2023-03-04T06:43:33;53.30;;;28.27;;
54408;SDS011;40315;48.620;9.828;2023-03-04T06:46:03;59.30;;;28.70;;
54408;SDS011;40315;48.620;9.828;2023-03-04T06:48:30;64.37;;;29.73;;
54408;SDS011;40315;48.620;9.828;2023-03-04T06:50:58;62.50;;;29.47;;
54408;SDS011;40315;48.620;9.828;2023-03-04T06:53:30;60.07;;;28.53;;
54408;SDS011;40315;48.620;9.828;2023-03-04T06:55:57;60.57;;;28.57;;
54408;SDS011;40315;48.620;9.828;2023-03-04T06:58:25;62.83;;;29.83;;
54408;SDS011;40315;48.620;9.828;2023-03-04T07:00:52;66.57;;;32.27;;
54408;SDS011;40315;48.620;9.828;2023-03-04T07:03:19;67.13;;;30.93;;
54408;SDS011;40315;48.620;9.828;2023-03-04T07:05:47;59.50;;;30.30;;
54408;SDS011;40315;48.620;9.828;2023-03-04T07:08:15;59.67;;;28.80;;
54408;SDS011;40315;48.620;9.828;2023-03-04T07:10:44;57.40;;;29.23;;
54408;SDS011;40315;48.620;9.828;2023-03-04T07:13:11;63.77;;;30.33;;
54408;SDS011;40315;48.620;9.828;2023-03-04T07:15:39;63.20;;;29.90;;
54408;SDS011;40315;48.620;9.828;2023-03-04T07:18:09;58.33;;;29.23;;
54408;SDS011;40315;48.620;9.828;2023-03-04T07:20:36;63.53;;;29.87;;
54408;SDS011;40315;48.620;9.828;2023-03-04T07:23:06;61.90;;;30.23;;
54408;SDS011;40315;48.620;9.828;2023-03-04T07:25:34;60.10;;;28.93;;
54408;SDS011;40315;48.620;9.828;2023-03-04T07:28:02;61.47;;;29.97;;
54408;SDS011;40315;48.620;9.828;2023-03-04T07:30:28;61.13;;;29.47;;
54408;SDS011;40315;48.620;9.828;2023-03-04T07:32:57;58.00;;;28.73;;
54408;SDS011;40315;48.620;9.828;2023-03-04T07:35:24;59.10;;;28.90;;
54408;SDS011;40315;48.620;9.828;2023-03-04T07:37:51;57.47;;;29.00;;
54408;SDS011;40315;48.620;9.828;2023-03-04T07:40:18;55.33;;;27.83;;
54408;SDS011;40315;48.620;9.828;2023-03-04T07:42:48;64.57;;;29.50;;
54408;SDS011;40315;48.620;9.828;2023-03-04T07:45:15;60.03;;;27.57;;
54408;SDS011;40315;48.620;9.828;2023-03-04T07:47:42;60.43;;;26.77;;
54408;SDS011;40315;48.620;9.828;2023-03-04T07:50:11;62.97;;;28.43;;
54408;SDS011;40315;48.620;9.828;2023-03-04T07:52:39;62.60;;;27.00;;
54408;SDS011;40315;48.620;9.828;2023-03-04T07:55:07;64.03;;;27.70;;
54408;SDS011;40315;48.620;9.828;2023-03-04T07:57:35;65.50;;;27.93;;
54408;SDS011;40315;48.620;9.828;2023-03-04T08:00:04;60.40;;;27.70;;
54408;SDS011;40315;48.620;9.828;2023-03-04T08:02:37;70.00;;;28.17;;
54408;SDS011;40315;48.620;9.828;2023-03-04T08:05:04;60.07;;;27.10;;
54408;SDS011;40315;48.620;9.828;2023-03-04T08:07:33;66.90;;;26.60;;
54408;SDS011;40315;48.620;9.828;2023-03-04T08:10:01;70.93;;;30.70;;
54408;SDS011;40315;48.620;9.828;2023-03-04T08:12:29;73.57;;;29.17;;
54408;SDS011;40315;48.620;9.828;2023-03-04T08:14:56;74.70;;;29.43;;
54408;SDS011;40315;48.620;9.828;2023-03-04T08:17:23;71.63;;;28.57;;
54408;SDS011;40315;48.620;9.828;2023-03-04T08:19:50;72.33;;;28.97;;
54408;SDS011;40315;48.620;9.828;2023-03-04T08:22:19;77.53;;;31.00;;
54408;SDS011;40315;48.620;9.828;2023-03-04T08:24:47;86.03;;;33.67;;
54408;SDS011;40315;48.620;9.828;2023-03-04T08:27:14;71.57;;;28.73;;
54408;SDS011;40315;48.620;9.828;2023-03-04T08:29:42;85.57;;;31.00;;
54408;SDS011;40315;48.620;9.828;2023-03-04T08:32:09;83.17;;;30.87;;
54408;SDS011;40315;48.620;9.828;2023-03-04T08:34:37;90.43;;;29.53;;
54408;SDS011;40315;48.620;9.828;2023-03-04T08:37:07;75.97;;;29.60;;
54408;SDS011;40315;48.620;9.828;2023-03-04T08:39:34;71.57;;;28.03;;
54408;SDS011;40315;48.620;9.828;2023-03-04T08:42:03;69.10;;;26.13;;
54408;SDS011;40315;48.620;9.828;2023-03-04T08:44:31;77.33;;;28.50;;
54408;SDS011;40315;48.620;9.828;2023-03-04T08:46:58;68.80;;;24.97;;
54408;SDS011;40315;48.620;9.828;2023-03-04T08:49:25;78.40;;;28.67;;
54408;SDS011;40315;48.620;9.828;2023-03-04T08:51:52;75.90;;;27.97;;
54408;SDS011;40315;48.620;9.828;2023-03-04T08:54:19;80.60;;;29.03;;
54408;SDS011;40315;48.620;9.828;2023-03-04T08:56:46;86.70;;;29.23;;
54408;SDS011;40315;48.620;9.828;2023-03-04T08:59:14;82.73;;;29.50;;
54408;SDS011;40315;48.620;9.828;2023-03-04T09:01:42;88.97;;;32.40;;
54408;SDS011;40315;48.620;9.828;2023-03-04T09:04:11;82.60;;;30.67;;
54408;SDS011;40315;48.620;9.828;2023-03-04T09:06:38;76.10;;;29.70;;
54408;SDS011;40315;48.620;9.828;2023-03-04T09:09:05;82.03;;;30.93;;
54408;SDS011;40315;48.620;9.828;2023-03-04T09:11:33;87.03;;;31.07;;
54408;SDS011;40315;48.620;9.828;2023-03-04T09:14:00;86.67;;;29.97;;
54408;SDS011;40315;48.620;9.828;2023-03-04T09:16:31;74.83;;;28.47;;
54408;SDS011;40315;48.620;9.828;2023-03-04T09:19:01;79.50;;;31.00;;
54408;SDS011;40315;48.620;9.828;2023-03-04T09:21:28;80.23;;;29.37;;
54408;SDS011;40315;48.620;9.828;2023-03-04T09:23:55;89.03;;;30.83;;
54408;SDS011;40315;48.620;9.828;2023-03-04T09:26:23;78.53;;;31.60;;
54408;SDS011;40315;48.620;9.828;2023-03-04T09:28:51;84.47;;;29.70;;
54408;SDS011;40315;48.620;9.828;2023-03-04T09:31:19;78.43;;;28.60;;
54408;SDS011;40315;48.620;9.828;2023-03-04T09:33:48;77.10;;;28.43;;
54408;SDS011;40315;48.620;9.828;2023-03-04T09:36:16;84.37;;;29.33;;
54408;SDS011;40315;48.620;9.828;2023-03-04T09:38:43;74.37;;;26.93;;
54408;SDS011;40315;48.620;9.828;2023-03-04T09:41:14;80.23;;;28.13;;
54408;SDS011;40315;48.620;9.828;2023-03-04T09:43:43;75.63;;;28.33;;
54408;SDS011;40315;48.620;9.828;2023-03-04T09:46:13;69.33;;;26.80;;
54408;SDS011;40315;48.620;9.828;2023-03-04T09:48:44;68.23;;;26.10;;
54408;SDS011;40315;48.620;9.828;2023-03-04T09:51:19;67.80;;;25.47;;
54408;SDS011;40315;48.620;9.828;2023-03-04T09:53:53;63.33;;;25.83;;
54408;SDS011;40315;48.620;9.828;2023-03-04T09:56:35;63.43;;;25.33;;
54408;SDS011;40315;48.620;9.828;2023-03-04T09:59:06;66.20;;;25.33;;
54408;SDS011;40315;48.620;9.828;2023-03-04T10:01:41;72.83;;;27.73;;
54408;SDS011;40315;48.620;9.828;2023-03-04T10:04:14;73.17;;;28.57;;
54408;SDS011;40315;48.620;9.828;2023-03-04T10:06:47;70.43;;;28.03;;
54408;SDS011;40315;48.620;9.828;2023-03-04T10:09:18;69.70;;;27.30;;
54408;SDS011;40315;48.620;9.828;2023-03-04T10:11:52;74.57;;;27.27;;
54408;SDS011;40315;48.620;9.828;2023-03-04T10:14:32;67.30;;;26.27;;
54408;SDS011;40315;48.620;9.828;2023-03-04T10:17:05;67.90;;;26.47;;
54408;SDS011;40315;48.620;9.828;2023-03-04T10:19:40;72.30;;;27.93;;
54408;SDS011;40315;48.620;9.828;2023-03-04T10:22:22;69.57;;;26.47;;
54408;SDS011;40315;48.620;9.828;2023-03-04T10:24:58;68.37;;;26.70;;
54408;SDS011;40315;48.620;9.828;2023-03-04T10:27:33;70.13;;;25.90;;
54408;SDS011;40315;48.620;9.828;2023-03-04T10:30:00;68.57;;;25.27;;
54408;SDS011;40315;48.620;9.828;2023-03-04T10:32:30;69.50;;;26.13;;
54408;SDS011;40315;48.620;9.828;2023-03-04T10:34:57;66.87;;;25.87;;
54408;SDS011;40315;48.620;9.828;2023-03-04T10:37:26;68.13;;;26.13;;
54408;SDS011;40315;48.620;9.828;2023-03-04T10:40:16;72.40;;;29.67;;
54408;SDS011;40315;48.620;9.828;2023-03-04T10:42:47;69.37;;;26.93;;
54408;SDS011;40315;48.620;9.828;2023-03-04T10:45:18;66.37;;;27.53;;
54408;SDS011;40315;48.620;9.828;2023-03-04T10:47:50;72.80;;;28.50;;
54408;SDS011;40315;48.620;9.828;2023-03-04T10:50:21;78.17;;;27.27;;
54408;SDS011;40315;48.620;9.828;2023-03-04T10:52:51;64.47;;;25.60;;
54408;SDS011;40315;48.620;9.828;2023-03-04T10:55:21;70.83;;;25.17;;
54408;SDS011;40315;48.620;9.828;2023-03-04T10:57:51;67.10;;;26.07;;
54408;SDS011;40315;48.620;9.828;2023-03-04T11:00:28;61.87;;;23.13;;
54408;SDS011;40315;48.620;9.828;2023-03-04T11:03:18;57.03;;;25.37;;
54408;SDS011;40315;48.620;9.828;2023-03-04T11:06:02;50.97;;;22.77;;
54408;SDS011;40315;48.620;9.828;2023-03-04T11:08:32;61.63;;;27.90;;
54408;SDS011;40315;48.620;9.828;2023-03-04T11:10:59;55.20;;;24.17;;
54408;SDS011;40315;48.620;9.828;2023-03-04T11:13:27;56.23;;;22.97;;
54408;SDS011;40315;48.620;9.828;2023-03-04T11:15:57;50.87;;;20.90;;
54408;SDS011;40315;48.620;9.828;2023-03-04T11:18:27;46.30;;;20.03;;
54408;SDS011;40315;48.620;9.828;2023-03-04T11:21:06;44.53;;;19.07;;
54408;SDS011;40315;48.620;9.828;2023-03-04T11:23:41;42.33;;;18.00;;
54408;SDS011;40315;48.620;9.828;2023-03-04T11:26:15;37.57;;;18.30;;
54408;SDS011;40315;48.620;9.828;2023-03-04T11:28:48;38.30;;;17.37;;
54408;SDS011;40315;48.620;9.828;2023-03-04T11:31:20;36.13;;;16.40;;
54408;SDS011;40315;48.620;9.828;2023-03-04T11:33:52;38.23;;;16.57;;
54408;SDS011;40315;48.620;9.828;2023-03-04T11:36:28;33.93;;;15.40;;
54408;SDS011;40315;48.620;9.828;2023-03-04T11:39:03;33.40;;;14.80;;
54408;SDS011;40315;48.620;9.828;2023-03-04T11:41:41;29.73;;;14.07;;
54408;SDS011;40315;48.620;9.828;2023-03-04T11:44:13;31.03;;;15.27;;
54408;SDS011;40315;48.620;9.828;2023-03-04T11:46:46;37.13;;;16.27;;
54408;SDS011;40315;48.620;9.828;2023-03-04T11:49:36;36.43;;;16.63;;
54408;SDS011;40315;48.620;9.828;2023-03-04T11:52:44;32.10;;;15.23;;
54408;SDS011;40315;48.620;9.828;2023-03-04T11:55:28;36.27;;;14.80;;
54408;SDS011;40315;48.620;9.828;2023-03-04T11:58:11;37.93;;;16.33;;
54408;SDS011;40315;48.620;9.828;2023-03-04T12:00:56;42.37;;;16.70;;
54408;SDS011;40315;48.620;9.828;2023-03-04T12:03:39;40.37;;;16.77;;
54408;SDS011;40315;48.620;9.828;2023-03-04T12:06:19;34.63;;;15.40;;
54408;SDS011;40315;48.620;9.828;2023-03-04T12:09:01;38.00;;;16.03;;
54408;SDS011;40315;48.620;9.828;2023-03-04T12:11:42;39.07;;;16.87;;
54408;SDS011;40315;48.620;9.828;2023-03-04T12:14:20;34.53;;;16.03;;
54408;SDS011;40315;48.620;9.828;2023-03-04T12:16:57;37.97;;;15.20;;
54408;SDS011;40315;48.620;9.828;2023-03-04T12:19:46;31.70;;;15.13;;
54408;SDS011;40315;48.620;9.828;2023-03-04T12:22:41;33.33;;;16.10;;
54408;SDS011;40315;48.620;9.828;2023-03-04T12:28:09;36.13;;;15.63;;
54408;SDS011;40315;48.620;9.828;2023-03-04T12:30:51;35.10;;;16.47;;
54408;SDS011;40315;48.620;9.828;2023-03-04T12:33:32;35.37;;;16.07;;
54408;SDS011;40315;48.620;9.828;2023-03-04T12:36:09;36.33;;;17.33;;
54408;SDS011;40315;48.620;9.828;2023-03-04T12:38:49;34.53;;;15.50;;
54408;SDS011;40315;48.620;9.828;2023-03-04T12:41:29;35.47;;;15.30;;
54408;SDS011;40315;48.620;9.828;2023-03-04T12:44:18;32.23;;;15.23;;
54408;SDS011;40315;48.620;9.828;2023-03-04T12:47:04;30.37;;;14.77;;
54408;SDS011;40315;48.620;9.828;2023-03-04T12:49:44;29.20;;;14.67;;
54408;SDS011;40315;48.620;9.828;2023-03-04T12:54:59;29.47;;;15.03;;
54408;SDS011;40315;48.620;9.828;2023-03-04T12:57:29;32.17;;;14.70;;
54408;SDS011;40315;48.620;9.828;2023-03-04T13:00:04;31.53;;;15.07;;
54408;SDS011;40315;48.620;9.828;2023-03-04T13:02:58;33.17;;;15.87;;
54408;SDS011;40315;48.620;9.828;2023-03-04T13:05:35;31.87;;;15.23;;
54408;SDS011;40315;48.620;9.828;2023-03-04T13:08:22;34.10;;;16.17;;
54408;SDS011;40315;48.620;9.828;2023-03-04T13:10:59;31.57;;;15.10;;
54408;SDS011;40315;48.620;9.828;2023-03-04T13:13:38;34.30;;;16.77;;
54408;SDS011;40315;48.620;9.828;2023-03-04T13:28:19;47.30;;;32.20;;
54408;SDS011;40315;48.620;9.828;2023-03-04T13:33:52;30.23;;;16.07;;
54408;SDS011;40315;48.620;9.828;2023-03-04T13:36:28;31.97;;;15.97;;
54408;SDS011;40315;48.620;9.828;2023-03-04T13:39:00;33.33;;;15.37;;
54408;SDS011;40315;48.620;9.828;2023-03-04T13:41:30;34.63;;;17.20;;
54408;SDS011;40315;48.620;9.828;2023-03-04T13:47:05;34.53;;;16.33;;
54408;SDS011;40315;48.620;9.828;2023-03-04T13:49:37;32.67;;;15.83;;
54408;SDS011;40315;48.620;9.828;2023-03-04T13:57:59;31.80;;;16.63;;
54408;SDS011;40315;48.620;9.828;2023-03-04T14:00:27;36.63;;;17.07;;
54408;SDS011;40315;48.620;9.828;2023-03-04T14:02:54;34.33;;;17.43;;
54408;SDS011;40315;48.620;9.828;2023-03-04T14:05:23;31.07;;;16.53;;
54408;SDS011;40315;48.620;9.828;2023-03-04T14:07:50;36.60;;;17.80;;
54408;SDS011;40315;48.620;9.828;2023-03-04T14:10:22;35.70;;;17.50;;
54408;SDS011;40315;48.620;9.828;2023-03-04T14:12:50;30.97;;;16.90;;
54408;SDS011;40315;48.620;9.828;2023-03-04T14:15:21;32.73;;;16.90;;
54408;SDS011;40315;48.620;9.828;2023-03-04T14:17:50;34.60;;;17.00;;
54408;SDS011;40315;48.620;9.828;2023-03-04T14:20:26;32.50;;;17.47;;
54408;SDS011;40315;48.620;9.828;2023-03-04T14:22:55;35.47;;;18.00;;
54408;SDS011;40315;48.620;9.828;2023-03-04T14:25:24;38.40;;;18.63;;
54408;SDS011;40315;48.620;9.828;2023-03-04T14:28:03;37.77;;;17.53;;
54408;SDS011;40315;48.620;9.828;2023-03-04T14:30:32;38.97;;;17.77;;
54408;SDS011;40315;48.620;9.828;2023-03-04T14:33:01;37.83;;;18.67;;
54408;SDS011;40315;48.620;9.828;2023-03-04T14:35:30;37.33;;;18.37;;
54408;SDS011;40315;48.620;9.828;2023-03-04T14:37:58;38.83;;;19.07;;
54408;SDS011;40315;48.620;9.828;2023-03-04T14:40:28;36.70;;;17.97;;
54408;SDS011;40315;48.620;9.828;2023-03-04T14:42:58;39.43;;;18.47;;
54408;SDS011;40315;48.620;9.828;2023-03-04T14:45:32;38.33;;;17.80;;
54408;SDS011;40315;48.620;9.828;2023-03-04T14:47:59;40.57;;;18.00;;
54408;SDS011;40315;48.620;9.828;2023-03-04T14:50:31;33.03;;;17.73;;
54408;SDS011;40315;48.620;9.828;2023-03-04T14:55:55;37.23;;;18.90;;
54408;SDS011;40315;48.620;9.828;2023-03-04T14:58:24;35.17;;;17.63;;
54408;SDS011;40315;48.620;9.828;2023-03-04T15:01:06;38.17;;;18.50;;
54408;SDS011;40315;48.620;9.828;2023-03-04T15:03:40;35.80;;;18.47;;
54408;SDS011;40315;48.620;9.828;2023-03-04T15:06:16;42.10;;;18.90;;
54408;SDS011;40315;48.620;9.828;2023-03-04T15:08:46;40.53;;;18.83;;
54408;SDS011;40315;48.620;9.828;2023-03-04T15:11:22;37.27;;;18.17;;
54408;SDS011;40315;48.620;9.828;2023-03-04T15:13:53;41.33;;;19.83;;
54408;SDS011;40315;48.620;9.828;2023-03-04T15:16:25;42.40;;;19.67;;
54408;SDS011;40315;48.620;9.828;2023-03-04T15:18:59;41.13;;;21.17;;
54408;SDS011;40315;48.620;9.828;2023-03-04T15:21:35;40.33;;;19.57;;
54408;SDS011;40315;48.620;9.828;2023-03-04T15:24:06;43.60;;;20.23;;